One Hundred Palms, California
Current Conditions -  °F | °C
As of 12:56 AM on Monday 20 Oct 2014 (Local Time) from KNJK Reporting Station
Clear Clear  
Wind Chill: 77°   Ceiling: Unl
Heat Index: 78°   Visibility: 10mi
Dew Point: 49°   Wind: 9mph
Humidity: 37%   Direction: 280°W
Pressure: 29.77"   Gusts: NA
Location:  33.093°N, 116.06°W
Report Text: KNJK 200756Z AUTO 28008KT 10SM CLR 25/09 A2977 RMK AO2 SLP095 T02500094 403560183 $
Loading
Personal Weather Stations






























Interactive Weather Map New forecast layout! Learn more

10-Day Weather Forecast

Advertisements
Track Severe Weather on mobile